sensor_id;sensor_type;location;lat;lon;timestamp;temperature;humidity
23149;DHT22;11743;51.228;22.498;2023-07-13T00:00:20;18.00;99.90
23149;DHT22;11743;51.228;22.498;2023-07-13T00:00:43;18.00;99.90
23149;DHT22;11743;51.228;22.498;2023-07-13T00:01:05;18.00;99.90
23149;DHT22;11743;51.228;22.498;2023-07-13T00:01:28;18.00;99.90
23149;DHT22;11743;51.228;22.498;2023-07-13T00:01:51;18.00;99.90
23149;DHT22;11743;51.228;22.498;2023-07-13T00:02:13;18.00;99.90
23149;DHT22;11743;51.228;22.498;2023-07-13T00:02:36;18.00;99.90
23149;DHT22;11743;51.228;22.498;2023-07-13T00:02:58;18.00;99.90
23149;DHT22;11743;51.228;22.498;2023-07-13T00:03:20;18.00;99.90
23149;DHT22;11743;51.228;22.498;2023-07-13T00:03:42;18.10;99.90
23149;DHT22;11743;51.228;22.498;2023-07-13T00:04:04;18.00;99.90
23149;DHT22;11743;51.228;22.498;2023-07-13T00:04:26;18.10;99.90
23149;DHT22;11743;51.228;22.498;2023-07-13T00:04:48;18.10;99.90
23149;DHT22;11743;51.228;22.498;2023-07-13T00:05:10;18.10;99.90
23149;DHT22;11743;51.228;22.498;2023-07-13T00:05:32;18.10;99.90
23149;DHT22;11743;51.228;22.498;2023-07-13T00:05:59;18.10;99.90
23149;DHT22;11743;51.228;22.498;2023-07-13T00:06:21;18.10;99.90
23149;DHT22;11743;51.228;22.498;2023-07-13T00:06:44;18.10;99.90
23149;DHT22;11743;51.228;22.498;2023-07-13T00:07:08;18.10;99.90
23149;DHT22;11743;51.228;22.498;2023-07-13T00:07:30;18.10;99.90
23149;DHT22;11743;51.228;22.498;2023-07-13T00:07:53;18.10;99.90
23149;DHT22;11743;51.228;22.498;2023-07-13T00:08:15;18.10;99.90
23149;DHT22;11743;51.228;22.498;2023-07-13T00:08:37;18.10;99.90
23149;DHT22;11743;51.228;22.498;2023-07-13T00:08:59;18.10;99.90
23149;DHT22;11743;51.228;22.498;2023-07-13T00:09:22;18.10;99.90
23149;DHT22;11743;51.228;22.498;2023-07-13T00:09:44;18.10;99.90
23149;DHT22;11743;51.228;22.498;2023-07-13T00:10:06;18.10;99.90
23149;DHT22;11743;51.228;22.498;2023-07-13T00:10:28;18.10;99.90
23149;DHT22;11743;51.228;22.498;2023-07-13T00:10:52;18.10;99.90
23149;DHT22;11743;51.228;22.498;2023-07-13T00:11:17;18.10;99.90
23149;DHT22;11743;51.228;22.498;2023-07-13T00:11:39;18.10;99.90
23149;DHT22;11743;51.228;22.498;2023-07-13T00:12:01;18.10;99.90
23149;DHT22;11743;51.228;22.498;2023-07-13T00:12:32;18.10;99.90
23149;DHT22;11743;51.228;22.498;2023-07-13T00:12:54;18.10;99.90
23149;DHT22;11743;51.228;22.498;2023-07-13T00:13:17;18.10;99.90
23149;DHT22;11743;51.228;22.498;2023-07-13T00:13:39;18.10;99.90
23149;DHT22;11743;51.228;22.498;2023-07-13T00:14:01;18.10;99.90
23149;DHT22;11743;51.228;22.498;2023-07-13T00:14:24;18.10;99.90
23149;DHT22;11743;51.228;22.498;2023-07-13T00:14:46;18.10;99.90
23149;DHT22;11743;51.228;22.498;2023-07-13T00:15:28;18.10;99.90
23149;DHT22;11743;51.228;22.498;2023-07-13T00:15:53;18.10;99.90
23149;DHT22;11743;51.228;22.498;2023-07-13T00:16:15;18.10;99.90
23149;DHT22;11743;51.228;22.498;2023-07-13T00:16:39;18.10;99.90
23149;DHT22;11743;51.228;22.498;2023-07-13T00:17:02;18.00;99.90
23149;DHT22;11743;51.228;22.498;2023-07-13T00:17:24;18.10;99.90
23149;DHT22;11743;51.228;22.498;2023-07-13T00:17:46;18.00;99.90
23149;DHT22;11743;51.228;22.498;2023-07-13T00:18:09;18.00;99.90
23149;DHT22;11743;51.228;22.498;2023-07-13T00:18:30;18.00;99.90
23149;DHT22;11743;51.228;22.498;2023-07-13T00:18:52;18.00;99.90
23149;DHT22;11743;51.228;22.498;2023-07-13T00:19:14;18.00;99.90
23149;DHT22;11743;51.228;22.498;2023-07-13T00:19:36;18.00;99.90
23149;DHT22;11743;51.228;22.498;2023-07-13T00:19:58;18.00;99.90
23149;DHT22;11743;51.228;22.498;2023-07-13T00:20:21;18.00;99.90
23149;DHT22;11743;51.228;22.498;2023-07-13T00:20:44;18.00;99.90
23149;DHT22;11743;51.228;22.498;2023-07-13T00:21:06;17.90;99.90
23149;DHT22;11743;51.228;22.498;2023-07-13T00:21:28;17.90;99.90
23149;DHT22;11743;51.228;22.498;2023-07-13T00:21:50;17.90;99.90
23149;DHT22;11743;51.228;22.498;2023-07-13T00:22:12;17.90;99.90
23149;DHT22;11743;51.228;22.498;2023-07-13T00:22:34;17.90;99.90
23149;DHT22;11743;51.228;22.498;2023-07-13T00:22:55;17.90;99.90
23149;DHT22;11743;51.228;22.498;2023-07-13T00:23:18;17.90;99.90
23149;DHT22;11743;51.228;22.498;2023-07-13T00:23:42;17.90;99.90
23149;DHT22;11743;51.228;22.498;2023-07-13T00:24:05;17.90;99.90
23149;DHT22;11743;51.228;22.498;2023-07-13T00:24:27;17.90;99.90
23149;DHT22;11743;51.228;22.498;2023-07-13T00:24:50;17.80;99.90
23149;DHT22;11743;51.228;22.498;2023-07-13T00:25:13;17.90;99.90
23149;DHT22;11743;51.228;22.498;2023-07-13T00:25:38;17.80;99.90
23149;DHT22;11743;51.228;22.498;2023-07-13T00:26:01;17.80;99.90
23149;DHT22;11743;51.228;22.498;2023-07-13T00:26:23;17.80;99.90
23149;DHT22;11743;51.228;22.498;2023-07-13T00:26:45;17.80;99.90
23149;DHT22;11743;51.228;22.498;2023-07-13T00:27:08;17.80;99.90
23149;DHT22;11743;51.228;22.498;2023-07-13T00:27:31;17.80;99.90
23149;DHT22;11743;51.228;22.498;2023-07-13T00:27:53;17.80;99.90
23149;DHT22;11743;51.228;22.498;2023-07-13T00:28:15;17.80;99.90
23149;DHT22;11743;51.228;22.498;2023-07-13T00:28:37;17.70;99.90
23149;DHT22;11743;51.228;22.498;2023-07-13T00:28:59;17.80;99.90
23149;DHT22;11743;51.228;22.498;2023-07-13T00:29:21;17.70;99.90
23149;DHT22;11743;51.228;22.498;2023-07-13T00:29:43;17.80;99.90
23149;DHT22;11743;51.228;22.498;2023-07-13T00:30:06;17.70;99.90
23149;DHT22;11743;51.228;22.498;2023-07-13T00:30:28;17.70;99.90
23149;DHT22;11743;51.228;22.498;2023-07-13T00:30:50;17.70;99.90
23149;DHT22;11743;51.228;22.498;2023-07-13T00:31:13;17.70;99.90
23149;DHT22;11743;51.228;22.498;2023-07-13T00:31:36;17.70;99.90
23149;DHT22;11743;51.228;22.498;2023-07-13T00:31:58;17.70;99.90
23149;DHT22;11743;51.228;22.498;2023-07-13T00:32:19;17.60;99.90
23149;DHT22;11743;51.228;22.498;2023-07-13T00:32:41;17.60;99.90
23149;DHT22;11743;51.228;22.498;2023-07-13T00:33:03;17.60;99.90
23149;DHT22;11743;51.228;22.498;2023-07-13T00:33:38;17.60;99.90
23149;DHT22;11743;51.228;22.498;2023-07-13T00:34:02;17.60;99.90
23149;DHT22;11743;51.228;22.498;2023-07-13T00:34:24;17.60;99.90
23149;DHT22;11743;51.228;22.498;2023-07-13T00:34:46;17.60;99.90
23149;DHT22;11743;51.228;22.498;2023-07-13T00:35:08;17.60;99.90
23149;DHT22;11743;51.228;22.498;2023-07-13T00:35:31;18.00;99.90
23149;DHT22;11743;51.228;22.498;2023-07-13T00:35:54;17.60;99.90
23149;DHT22;11743;51.228;22.498;2023-07-13T00:36:17;17.60;99.90
23149;DHT22;11743;51.228;22.498;2023-07-13T00:36:39;17.60;99.90
23149;DHT22;11743;51.228;22.498;2023-07-13T00:37:01;17.60;99.90
23149;DHT22;11743;51.228;22.498;2023-07-13T00:37:22;17.60;99.90
23149;DHT22;11743;51.228;22.498;2023-07-13T00:37:45;17.60;99.90
23149;DHT22;11743;51.228;22.498;2023-07-13T00:38:07;17.60;99.90
23149;DHT22;11743;51.228;22.498;2023-07-13T00:38:29;17.50;99.90
23149;DHT22;11743;51.228;22.498;2023-07-13T00:38:51;17.50;99.90
23149;DHT22;11743;51.228;22.498;2023-07-13T00:39:13;17.50;99.90
23149;DHT22;11743;51.228;22.498;2023-07-13T00:39:35;17.50;99.90
23149;DHT22;11743;51.228;22.498;2023-07-13T00:39:57;17.50;99.90
23149;DHT22;11743;51.228;22.498;2023-07-13T00:40:19;17.50;99.90
23149;DHT22;11743;51.228;22.498;2023-07-13T00:40:41;17.50;99.90
23149;DHT22;11743;51.228;22.498;2023-07-13T00:41:04;17.50;99.90
23149;DHT22;11743;51.228;22.498;2023-07-13T00:41:26;17.50;99.90
23149;DHT22;11743;51.228;22.498;2023-07-13T00:41:48;17.50;99.90
23149;DHT22;11743;51.228;22.498;2023-07-13T00:42:10;17.50;99.90
23149;DHT22;11743;51.228;22.498;2023-07-13T00:42:33;17.50;99.90
23149;DHT22;11743;51.228;22.498;2023-07-13T00:42:58;17.50;99.90
23149;DHT22;11743;51.228;22.498;2023-07-13T00:43:22;17.50;99.90
23149;DHT22;11743;51.228;22.498;2023-07-13T00:43:44;17.50;99.90
23149;DHT22;11743;51.228;22.498;2023-07-13T00:44:13;17.50;99.90
23149;DHT22;11743;51.228;22.498;2023-07-13T00:44:35;17.40;99.90
23149;DHT22;11743;51.228;22.498;2023-07-13T00:46:42;17.40;99.90
23149;DHT22;11743;51.228;22.498;2023-07-13T00:47:04;17.40;99.90
23149;DHT22;11743;51.228;22.498;2023-07-13T00:47:25;17.40;99.90
23149;DHT22;11743;51.228;22.498;2023-07-13T00:47:47;17.40;99.90
23149;DHT22;11743;51.228;22.498;2023-07-13T00:48:14;17.40;99.90
23149;DHT22;11743;51.228;22.498;2023-07-13T00:48:39;17.40;99.90
23149;DHT22;11743;51.228;22.498;2023-07-13T00:49:04;17.40;99.90
23149;DHT22;11743;51.228;22.498;2023-07-13T00:49:29;17.40;99.90
23149;DHT22;11743;51.228;22.498;2023-07-13T00:49:52;17.40;99.90
23149;DHT22;11743;51.228;22.498;2023-07-13T00:50:15;17.40;99.90
23149;DHT22;11743;51.228;22.498;2023-07-13T00:50:38;17.40;99.90
23149;DHT22;11743;51.228;22.498;2023-07-13T00:51:01;17.40;99.90
23149;DHT22;11743;51.228;22.498;2023-07-13T00:52:31;17.30;99.90
23149;DHT22;11743;51.228;22.498;2023-07-13T00:52:54;17.30;99.90
23149;DHT22;11743;51.228;22.498;2023-07-13T00:53:19;17.30;99.90
23149;DHT22;11743;51.228;22.498;2023-07-13T00:53:41;17.30;99.90
23149;DHT22;11743;51.228;22.498;2023-07-13T00:54:07;17.30;99.90
23149;DHT22;11743;51.228;22.498;2023-07-13T00:54:35;17.30;99.90
23149;DHT22;11743;51.228;22.498;2023-07-13T00:54:58;17.30;99.90
23149;DHT22;11743;51.228;22.498;2023-07-13T00:55:21;17.30;99.90
23149;DHT22;11743;51.228;22.498;2023-07-13T00:55:43;17.20;99.90
23149;DHT22;11743;51.228;22.498;2023-07-13T00:56:06;17.20;99.90
23149;DHT22;11743;51.228;22.498;2023-07-13T00:56:28;17.20;99.90
23149;DHT22;11743;51.228;22.498;2023-07-13T00:56:54;17.20;99.90
23149;DHT22;11743;51.228;22.498;2023-07-13T00:57:19;17.20;99.90
23149;DHT22;11743;51.228;22.498;2023-07-13T00:57:42;17.20;99.90
23149;DHT22;11743;51.228;22.498;2023-07-13T00:58:05;17.20;99.90
23149;DHT22;11743;51.228;22.498;2023-07-13T00:58:28;17.20;99.90
23149;DHT22;11743;51.228;22.498;2023-07-13T00:58:50;17.20;99.90
23149;DHT22;11743;51.228;22.498;2023-07-13T00:59:14;17.20;99.90
23149;DHT22;11743;51.228;22.498;2023-07-13T00:59:39;17.20;99.90
23149;DHT22;11743;51.228;22.498;2023-07-13T01:00:06;17.20;99.90
23149;DHT22;11743;51.228;22.498;2023-07-13T01:00:30;17.20;99.90
23149;DHT22;11743;51.228;22.498;2023-07-13T01:00:53;17.20;99.90
23149;DHT22;11743;51.228;22.498;2023-07-13T01:01:15;17.20;99.90
23149;DHT22;11743;51.228;22.498;2023-07-13T01:01:37;17.20;99.90
23149;DHT22;11743;51.228;22.498;2023-07-13T01:01:59;17.20;99.90
23149;DHT22;11743;51.228;22.498;2023-07-13T01:02:21;17.20;99.90
23149;DHT22;11743;51.228;22.498;2023-07-13T01:02:45;17.20;99.90
23149;DHT22;11743;51.228;22.498;2023-07-13T01:03:08;17.20;99.90
23149;DHT22;11743;51.228;22.498;2023-07-13T01:03:30;17.20;99.90
23149;DHT22;11743;51.228;22.498;2023-07-13T01:03:52;17.10;99.90
23149;DHT22;11743;51.228;22.498;2023-07-13T01:04:16;17.10;99.90
23149;DHT22;11743;51.228;22.498;2023-07-13T01:04:38;17.10;99.90
23149;DHT22;11743;51.228;22.498;2023-07-13T01:05:00;17.10;99.90
23149;DHT22;11743;51.228;22.498;2023-07-13T01:05:24;17.10;99.90
23149;DHT22;11743;51.228;22.498;2023-07-13T01:05:48;17.10;99.90
23149;DHT22;11743;51.228;22.498;2023-07-13T01:06:11;17.10;99.90
23149;DHT22;11743;51.228;22.498;2023-07-13T01:06:35;17.10;99.90
23149;DHT22;11743;51.228;22.498;2023-07-13T01:06:58;17.10;99.90
23149;DHT22;11743;51.228;22.498;2023-07-13T01:07:19;17.10;99.90
23149;DHT22;11743;51.228;22.498;2023-07-13T01:07:42;17.10;99.90
23149;DHT22;11743;51.228;22.498;2023-07-13T01:08:05;17.10;99.90
23149;DHT22;11743;51.228;22.498;2023-07-13T01:08:27;17.10;99.90
23149;DHT22;11743;51.228;22.498;2023-07-13T01:08:49;17.10;99.90
23149;DHT22;11743;51.228;22.498;2023-07-13T01:09:11;17.10;99.90
23149;DHT22;11743;51.228;22.498;2023-07-13T01:09:33;17.10;99.90
23149;DHT22;11743;51.228;22.498;2023-07-13T01:09:55;17.10;99.90
23149;DHT22;11743;51.228;22.498;2023-07-13T01:10:17;16.90;99.90
23149;DHT22;11743;51.228;22.498;2023-07-13T01:10:39;17.10;99.90
23149;DHT22;11743;51.228;22.498;2023-07-13T01:11:01;17.10;99.90
23149;DHT22;11743;51.228;22.498;2023-07-13T01:11:23;17.10;99.90
23149;DHT22;11743;51.228;22.498;2023-07-13T01:11:45;17.10;99.90
23149;DHT22;11743;51.228;22.498;2023-07-13T01:12:07;17.10;99.90
23149;DHT22;11743;51.228;22.498;2023-07-13T01:12:29;17.10;99.90
23149;DHT22;11743;51.228;22.498;2023-07-13T01:12:53;17.10;99.90
23149;DHT22;11743;51.228;22.498;2023-07-13T01:13:15;17.10;99.90
23149;DHT22;11743;51.228;22.498;2023-07-13T01:13:37;17.00;99.90
23149;DHT22;11743;51.228;22.498;2023-07-13T01:13:59;17.00;99.90
23149;DHT22;11743;51.228;22.498;2023-07-13T01:14:22;17.00;99.90
23149;DHT22;11743;51.228;22.498;2023-07-13T01:14:44;17.00;99.90
23149;DHT22;11743;51.228;22.498;2023-07-13T01:15:42;17.00;99.90
23149;DHT22;11743;51.228;22.498;2023-07-13T01:16:15;17.00;99.90
23149;DHT22;11743;51.228;22.498;2023-07-13T01:16:39;17.00;99.90
23149;DHT22;11743;51.228;22.498;2023-07-13T01:17:03;17.00;99.90
23149;DHT22;11743;51.228;22.498;2023-07-13T01:17:26;17.00;99.90
23149;DHT22;11743;51.228;22.498;2023-07-13T01:17:48;17.00;99.90
23149;DHT22;11743;51.228;22.498;2023-07-13T01:18:16;17.00;99.90
23149;DHT22;11743;51.228;22.498;2023-07-13T01:18:39;17.00;99.90
23149;DHT22;11743;51.228;22.498;2023-07-13T01:19:04;17.00;99.90
23149;DHT22;11743;51.228;22.498;2023-07-13T01:19:35;17.00;99.90
23149;DHT22;11743;51.228;22.498;2023-07-13T01:19:58;17.00;99.90
23149;DHT22;11743;51.228;22.498;2023-07-13T01:20:21;17.00;99.90
23149;DHT22;11743;51.228;22.498;2023-07-13T01:20:51;17.00;99.90
23149;DHT22;11743;51.228;22.498;2023-07-13T01:21:13;17.00;99.90
23149;DHT22;11743;51.228;22.498;2023-07-13T01:21:35;17.00;99.90
23149;DHT22;11743;51.228;22.498;2023-07-13T01:21:57;17.00;99.90
23149;DHT22;11743;51.228;22.498;2023-07-13T01:22:20;17.00;99.90
23149;DHT22;11743;51.228;22.498;2023-07-13T01:22:46;17.00;99.90
23149;DHT22;11743;51.228;22.498;2023-07-13T01:23:10;17.00;99.90
23149;DHT22;11743;51.228;22.498;2023-07-13T01:23:33;17.00;99.90
23149;DHT22;11743;51.228;22.498;2023-07-13T01:23:54;16.90;99.90
23149;DHT22;11743;51.228;22.498;2023-07-13T01:24:17;17.00;99.90
23149;DHT22;11743;51.228;22.498;2023-07-13T01:24:40;16.90;99.90
23149;DHT22;11743;51.228;22.498;2023-07-13T01:25:04;16.90;99.90
23149;DHT22;11743;51.228;22.498;2023-07-13T01:25:26;17.00;99.90
23149;DHT22;11743;51.228;22.498;2023-07-13T01:25:48;16.90;99.90
23149;DHT22;11743;51.228;22.498;2023-07-13T01:26:10;17.00;99.90
23149;DHT22;11743;51.228;22.498;2023-07-13T01:26:33;16.90;99.90
23149;DHT22;11743;51.228;22.498;2023-07-13T01:26:55;16.90;99.90
23149;DHT22;11743;51.228;22.498;2023-07-13T01:27:21;16.90;99.90
23149;DHT22;11743;51.228;22.498;2023-07-13T01:27:44;16.90;99.90
23149;DHT22;11743;51.228;22.498;2023-07-13T01:28:08;16.90;99.90
23149;DHT22;11743;51.228;22.498;2023-07-13T01:28:30;16.90;99.90
23149;DHT22;11743;51.228;22.498;2023-07-13T01:28:52;16.90;99.90
23149;DHT22;11743;51.228;22.498;2023-07-13T01:29:14;16.90;99.90
23149;DHT22;11743;51.228;22.498;2023-07-13T01:29:38;16.90;99.90
23149;DHT22;11743;51.228;22.498;2023-07-13T01:30:08;16.90;99.90
23149;DHT22;11743;51.228;22.498;2023-07-13T01:30:31;16.90;99.90
23149;DHT22;11743;51.228;22.498;2023-07-13T01:30:55;16.90;99.90
23149;DHT22;11743;51.228;22.498;2023-07-13T01:31:17;16.90;99.90
23149;DHT22;11743;51.228;22.498;2023-07-13T01:31:39;16.90;99.90
23149;DHT22;11743;51.228;22.498;2023-07-13T01:32:01;16.90;99.90
23149;DHT22;11743;51.228;22.498;2023-07-13T01:32:24;16.90;99.90
23149;DHT22;11743;51.228;22.498;2023-07-13T01:32:47;16.90;99.90
23149;DHT22;11743;51.228;22.498;2023-07-13T01:33:09;16.90;99.90
23149;DHT22;11743;51.228;22.498;2023-07-13T01:33:31;16.90;99.90
23149;DHT22;11743;51.228;22.498;2023-07-13T01:33:53;16.90;99.90
23149;DHT22;11743;51.228;22.498;2023-07-13T01:34:15;16.90;99.90
23149;DHT22;11743;51.228;22.498;2023-07-13T01:34:37;16.90;99.90
23149;DHT22;11743;51.228;22.498;2023-07-13T01:34:58;16.90;99.90
23149;DHT22;11743;51.228;22.498;2023-07-13T01:35:20;16.90;99.90
23149;DHT22;11743;51.228;22.498;2023-07-13T01:35:43;16.90;99.90
23149;DHT22;11743;51.228;22.498;2023-07-13T01:36:07;16.90;99.90
23149;DHT22;11743;51.228;22.498;2023-07-13T01:36:30;16.90;99.90
23149;DHT22;11743;51.228;22.498;2023-07-13T01:36:53;16.90;99.90
23149;DHT22;11743;51.228;22.498;2023-07-13T01:37:15;16.80;99.90
23149;DHT22;11743;51.228;22.498;2023-07-13T01:37:37;16.80;99.90
23149;DHT22;11743;51.228;22.498;2023-07-13T01:37:58;16.90;99.90
23149;DHT22;11743;51.228;22.498;2023-07-13T01:38:24;16.80;99.90
23149;DHT22;11743;51.228;22.498;2023-07-13T01:38:46;16.90;99.90
23149;DHT22;11743;51.228;22.498;2023-07-13T01:39:07;16.80;99.90
23149;DHT22;11743;51.228;22.498;2023-07-13T01:39:30;16.90;99.90
23149;DHT22;11743;51.228;22.498;2023-07-13T01:39:53;16.90;99.90
23149;DHT22;11743;51.228;22.498;2023-07-13T01:40:15;16.80;99.90
23149;DHT22;11743;51.228;22.498;2023-07-13T01:40:37;16.80;99.90
23149;DHT22;11743;51.228;22.498;2023-07-13T01:40:59;16.80;99.90
23149;DHT22;11743;51.228;22.498;2023-07-13T01:41:21;16.80;99.90
23149;DHT22;11743;51.228;22.498;2023-07-13T01:41:43;16.80;99.90
23149;DHT22;11743;51.228;22.498;2023-07-13T01:42:04;16.80;99.90
23149;DHT22;11743;51.228;22.498;2023-07-13T01:42:28;16.80;99.90
23149;DHT22;11743;51.228;22.498;2023-07-13T01:42:49;16.80;99.90
23149;DHT22;11743;51.228;22.498;2023-07-13T01:43:11;16.80;99.90
23149;DHT22;11743;51.228;22.498;2023-07-13T01:43:33;16.80;99.90
23149;DHT22;11743;51.228;22.498;2023-07-13T01:43:55;16.80;99.90
23149;DHT22;11743;51.228;22.498;2023-07-13T01:44:17;16.80;99.90
23149;DHT22;11743;51.228;22.498;2023-07-13T01:44:39;16.80;99.90
23149;DHT22;11743;51.228;22.498;2023-07-13T01:45:01;16.80;99.90
23149;DHT22;11743;51.228;22.498;2023-07-13T01:45:23;16.80;99.90
23149;DHT22;11743;51.228;22.498;2023-07-13T01:45:45;16.80;99.90
23149;DHT22;11743;51.228;22.498;2023-07-13T01:46:07;16.80;99.90
23149;DHT22;11743;51.228;22.498;2023-07-13T01:46:44;16.80;99.90
23149;DHT22;11743;51.228;22.498;2023-07-13T01:47:06;16.80;99.90
23149;DHT22;11743;51.228;22.498;2023-07-13T01:47:28;16.80;99.90
23149;DHT22;11743;51.228;22.498;2023-07-13T01:47:52;16.80;99.90
23149;DHT22;11743;51.228;22.498;2023-07-13T01:48:14;16.80;99.90
23149;DHT22;11743;51.228;22.498;2023-07-13T01:48:36;16.80;99.90
23149;DHT22;11743;51.228;22.498;2023-07-13T01:48:58;16.80;99.90
23149;DHT22;11743;51.228;22.498;2023-07-13T01:49:19;16.80;99.90
23149;DHT22;11743;51.228;22.498;2023-07-13T01:49:41;16.80;99.90
23149;DHT22;11743;51.228;22.498;2023-07-13T01:50:03;16.80;99.90
23149;DHT22;11743;51.228;22.498;2023-07-13T01:50:25;16.80;99.90
23149;DHT22;11743;51.228;22.498;2023-07-13T01:50:47;16.80;99.90
23149;DHT22;11743;51.228;22.498;2023-07-13T01:51:09;16.80;99.90
23149;DHT22;11743;51.228;22.498;2023-07-13T01:51:31;16.80;99.90
23149;DHT22;11743;51.228;22.498;2023-07-13T01:51:53;16.80;99.90
23149;DHT22;11743;51.228;22.498;2023-07-13T01:52:15;16.80;99.90
23149;DHT22;11743;51.228;22.498;2023-07-13T01:52:37;16.80;99.90
23149;DHT22;11743;51.228;22.498;2023-07-13T01:52:59;16.80;99.90
23149;DHT22;11743;51.228;22.498;2023-07-13T01:53:21;16.80;99.90
23149;DHT22;11743;51.228;22.498;2023-07-13T01:53:43;16.80;99.90
23149;DHT22;11743;51.228;22.498;2023-07-13T01:54:05;16.80;99.90
23149;DHT22;11743;51.228;22.498;2023-07-13T01:54:26;16.80;99.90
23149;DHT22;11743;51.228;22.498;2023-07-13T01:54:48;16.80;99.90
23149;DHT22;11743;51.228;22.498;2023-07-13T01:55:10;16.80;99.90
23149;DHT22;11743;51.228;22.498;2023-07-13T01:55:33;16.80;99.90
23149;DHT22;11743;51.228;22.498;2023-07-13T01:55:55;16.80;99.90
23149;DHT22;11743;51.228;22.498;2023-07-13T01:56:16;16.80;99.90
23149;DHT22;11743;51.228;22.498;2023-07-13T01:56:38;16.70;99.90
23149;DHT22;11743;51.228;22.498;2023-07-13T01:57:01;16.80;99.90
23149;DHT22;11743;51.228;22.498;2023-07-13T01:57:23;16.70;99.90
23149;DHT22;11743;51.228;22.498;2023-07-13T01:57:44;16.80;99.90
23149;DHT22;11743;51.228;22.498;2023-07-13T01:58:06;16.70;99.90
23149;DHT22;11743;51.228;22.498;2023-07-13T01:58:28;16.80;99.90
23149;DHT22;11743;51.228;22.498;2023-07-13T01:58:50;16.70;99.90
23149;DHT22;11743;51.228;22.498;2023-07-13T01:59:13;16.80;99.90
23149;DHT22;11743;51.228;22.498;2023-07-13T01:59:35;16.80;99.90
23149;DHT22;11743;51.228;22.498;2023-07-13T01:59:57;16.70;99.90
23149;DHT22;11743;51.228;22.498;2023-07-13T02:00:19;16.70;99.90
23149;DHT22;11743;51.228;22.498;2023-07-13T02:00:40;16.70;99.90
23149;DHT22;11743;51.228;22.498;2023-07-13T02:01:02;16.70;99.90
23149;DHT22;11743;51.228;22.498;2023-07-13T02:01:24;16.70;99.90
23149;DHT22;11743;51.228;22.498;2023-07-13T02:01:46;16.70;99.90
23149;DHT22;11743;51.228;22.498;2023-07-13T02:02:08;16.70;99.90
23149;DHT22;11743;51.228;22.498;2023-07-13T02:02:30;16.70;99.90
23149;DHT22;11743;51.228;22.498;2023-07-13T02:02:52;16.70;99.90
23149;DHT22;11743;51.228;22.498;2023-07-13T02:03:14;16.70;99.90
23149;DHT22;11743;51.228;22.498;2023-07-13T02:03:39;16.70;99.90
23149;DHT22;11743;51.228;22.498;2023-07-13T02:04:02;16.70;99.90
23149;DHT22;11743;51.228;22.498;2023-07-13T02:04:24;16.70;99.90
23149;DHT22;11743;51.228;22.498;2023-07-13T02:04:46;16.70;99.90
23149;DHT22;11743;51.228;22.498;2023-07-13T02:05:08;16.70;99.90
23149;DHT22;11743;51.228;22.498;2023-07-13T02:05:30;16.70;99.90
23149;DHT22;11743;51.228;22.498;2023-07-13T02:05:52;16.70;99.90
23149;DHT22;11743;51.228;22.498;2023-07-13T02:06:13;16.70;99.90
23149;DHT22;11743;51.228;22.498;2023-07-13T02:06:35;16.70;99.90
23149;DHT22;11743;51.228;22.498;2023-07-13T02:06:57;16.70;99.90
23149;DHT22;11743;51.228;22.498;2023-07-13T02:07:19;16.70;99.90
23149;DHT22;11743;51.228;22.498;2023-07-13T02:07:41;16.70;99.90
23149;DHT22;11743;51.228;22.498;2023-07-13T02:08:03;16.70;99.90
23149;DHT22;11743;51.228;22.498;2023-07-13T02:08:25;16.70;99.90
23149;DHT22;11743;51.228;22.498;2023-07-13T02:08:47;16.70;99.90
23149;DHT22;11743;51.228;22.498;2023-07-13T02:09:09;16.70;99.90
23149;DHT22;11743;51.228;22.498;2023-07-13T02:09:31;16.70;99.90
23149;DHT22;11743;51.228;22.498;2023-07-13T02:09:53;16.70;99.90
23149;DHT22;11743;51.228;22.498;2023-07-13T02:10:15;16.70;99.90
23149;DHT22;11743;51.228;22.498;2023-07-13T02:10:37;16.70;99.90
23149;DHT22;11743;51.228;22.498;2023-07-13T02:10:59;16.70;99.90
23149;DHT22;11743;51.228;22.498;2023-07-13T02:11:21;16.70;99.90
23149;DHT22;11743;51.228;22.498;2023-07-13T02:11:43;16.60;99.90
23149;DHT22;11743;51.228;22.498;2023-07-13T02:12:05;16.70;99.90
23149;DHT22;11743;51.228;22.498;2023-07-13T02:12:27;16.60;99.90
23149;DHT22;11743;51.228;22.498;2023-07-13T02:12:49;16.60;99.90
23149;DHT22;11743;51.228;22.498;2023-07-13T02:13:12;16.70;99.90
23149;DHT22;11743;51.228;22.498;2023-07-13T02:13:34;16.70;99.90
23149;DHT22;11743;51.228;22.498;2023-07-13T02:13:56;16.70;99.90
23149;DHT22;11743;51.228;22.498;2023-07-13T02:14:17;16.60;99.90
23149;DHT22;11743;51.228;22.498;2023-07-13T02:14:39;16.70;99.90
23149;DHT22;11743;51.228;22.498;2023-07-13T02:15:02;16.70;99.90
23149;DHT22;11743;51.228;22.498;2023-07-13T02:15:24;16.70;99.90
23149;DHT22;11743;51.228;22.498;2023-07-13T02:15:46;16.70;99.90
23149;DHT22;11743;51.228;22.498;2023-07-13T02:16:08;16.70;99.90
23149;DHT22;11743;51.228;22.498;2023-07-13T02:16:31;16.70;99.90
23149;DHT22;11743;51.228;22.498;2023-07-13T02:16:53;16.70;99.90
23149;DHT22;11743;51.228;22.498;2023-07-13T02:17:14;16.70;99.90
23149;DHT22;11743;51.228;22.498;2023-07-13T02:17:36;16.70;99.90
23149;DHT22;11743;51.228;22.498;2023-07-13T02:17:58;16.70;99.90
23149;DHT22;11743;51.228;22.498;2023-07-13T02:18:20;16.70;99.90
23149;DHT22;11743;51.228;22.498;2023-07-13T02:18:42;16.70;99.90
23149;DHT22;11743;51.228;22.498;2023-07-13T02:19:04;16.70;99.90
23149;DHT22;11743;51.228;22.498;2023-07-13T02:19:25;16.70;99.90
23149;DHT22;11743;51.228;22.498;2023-07-13T02:19:47;16.80;99.90
23149;DHT22;11743;51.228;22.498;2023-07-13T02:20:09;16.70;99.90
23149;DHT22;11743;51.228;22.498;2023-07-13T02:20:31;16.80;99.90
23149;DHT22;11743;51.228;22.498;2023-07-13T02:20:53;16.80;99.90
23149;DHT22;11743;51.228;22.498;2023-07-13T02:21:15;16.80;99.90
23149;DHT22;11743;51.228;22.498;2023-07-13T02:21:37;16.80;99.90
23149;DHT22;11743;51.228;22.498;2023-07-13T02:21:58;16.70;99.90
23149;DHT22;11743;51.228;22.498;2023-07-13T02:22:21;16.80;99.90
23149;DHT22;11743;51.228;22.498;2023-07-13T02:22:43;16.70;99.90
23149;DHT22;11743;51.228;22.498;2023-07-13T02:23:05;16.80;99.90
23149;DHT22;11743;51.228;22.498;2023-07-13T02:23:30;16.70;99.90
23149;DHT22;11743;51.228;22.498;2023-07-13T02:23:52;16.80;99.90
23149;DHT22;11743;51.228;22.498;2023-07-13T02:24:14;16.80;99.90
23149;DHT22;11743;51.228;22.498;2023-07-13T02:24:39;16.80;99.90
23149;DHT22;11743;51.228;22.498;2023-07-13T02:25:01;16.80;99.90